Etusivu
METAR-TAF:

METAR-TAF

Lentoasemat :

Pryor Field Regional Airport

Decatur, Alabama, Yhdysvallat

Leveyspiiri: 34-39-29N, Pituuspiiri: 086-56-36W, korkeus merenpinnasta: 180 m

Tämänhetkinen sää

Tämä raportti tehtiin 17 minuuttia sitten, kello 13.32 UTC
Tuuli 7 kn etelästä
Lämpötila 19°C
Kosteus 88%
Ilmanpaine 1013 hPa
Näkyvyys: 16.1 km
Muutamia pilviä 1300 ft:n korkeudessa
Hajonneita pilviä 4600 ft:n korkeudessa
Pilvistä 5500 ft:n korkeudessa

METAR: KDCU 251332Z AUTO 17007KT 10SM FEW013 BKN046 OVC055 19/17 A2990 RMK AO2 T01890167

Aika: 08:49 (13:49 UTC)


TAF: puuttuu

Säähavainnot ja -ennusteet yli 4000 lentoasemalta (METAR- ja TAF-raportit).

Käytössä olevat sääasemat on merkitty karttaan keltaisilla ja punaisilla pisteillä.

Aseta hiiri pisteen päälle nähdäksesi sääaseman nimen.

Klikkaa sitten nähdäksesi säähavainnot ja -ennusteet.

Kartan vaihtaminen: klikkaa mustalla rastilla varustettuja vihreitä pisteitä, niin voit zoomata sisään; viivalla varustettua vihreää pistettä, niin voit zoomata ulos tai vihreitä nuolia, niin pääset viereisille kartoille.


METAR-TAF: